createdAt,value
2023-05-06T00:04:29.330Z,6.92
2023-05-06T00:09:32.119Z,6.88
2023-05-06T00:14:34.877Z,6.84
2023-05-06T00:19:38.788Z,6.79
2023-05-06T00:24:41.564Z,6.73
2023-05-06T00:29:44.261Z,6.72
2023-05-06T00:34:47.009Z,6.68
2023-05-06T00:39:49.758Z,6.66
2023-05-06T00:44:52.516Z,6.61
2023-05-06T00:49:55.947Z,6.56
2023-05-06T00:54:58.683Z,6.49
2023-05-06T01:00:01.694Z,6.45
2023-05-06T01:05:04.988Z,6.36
2023-05-06T01:10:23.810Z,6.30
2023-05-06T01:15:36.617Z,6.24
2023-05-06T01:20:42.393Z,6.21
2023-05-06T01:25:45.256Z,6.15
2023-05-06T01:30:51.615Z,6.11
2023-05-06T01:36:08.712Z,6.07
2023-05-06T01:41:16.147Z,6.03
2023-05-06T01:46:21.875Z,5.96
2023-05-06T01:51:25.294Z,5.90
2023-05-06T01:56:30.383Z,5.82
2023-05-06T02:01:33.139Z,5.75
2023-05-06T02:06:35.868Z,5.68
2023-05-06T02:11:38.593Z,5.63
2023-05-06T02:16:41.352Z,5.58
2023-05-06T02:21:44.050Z,5.53
2023-05-06T02:26:46.745Z,5.45
2023-05-06T02:31:49.517Z,5.36
2023-05-06T02:36:52.359Z,5.29
2023-05-06T02:41:55.145Z,5.21
2023-05-06T02:46:57.859Z,5.13
2023-05-06T02:52:00.614Z,5.09
2023-05-06T02:57:03.392Z,5.04
2023-05-06T03:02:06.083Z,4.96
2023-05-06T03:07:08.873Z,4.91
2023-05-06T03:12:11.952Z,4.88
2023-05-06T03:17:14.686Z,4.89
2023-05-06T03:22:17.389Z,4.93
2023-05-06T03:27:20.118Z,4.97
2023-05-06T03:32:22.857Z,5.00
2023-05-06T03:37:25.614Z,5.01
2023-05-06T03:42:28.327Z,5.06
2023-05-06T03:47:31.098Z,5.10
2023-05-06T03:52:33.855Z,5.14
2023-05-06T03:57:36.582Z,5.25
2023-05-06T04:02:39.414Z,5.36
2023-05-06T04:07:42.166Z,5.47
2023-05-06T04:12:44.925Z,5.56
2023-05-06T04:17:47.725Z,5.66
2023-05-06T04:22:52.234Z,5.73
2023-05-06T04:27:55.072Z,5.83
2023-05-06T04:32:58.087Z,5.92
2023-05-06T04:38:01.185Z,6.03
2023-05-06T04:43:04.825Z,6.14
2023-05-06T04:48:09.878Z,6.24
2023-05-06T04:53:13.582Z,6.33
2023-05-06T04:58:16.377Z,6.43
2023-05-06T05:03:19.131Z,6.53
2023-05-06T05:08:22.120Z,6.65
2023-05-06T05:13:24.810Z,6.75
2023-05-06T05:18:29.269Z,6.84
2023-05-06T05:23:32.111Z,6.96
2023-05-06T05:28:35.668Z,7.07
2023-05-06T05:33:38.420Z,7.23
2023-05-06T05:38:41.502Z,7.34
2023-05-06T05:43:44.201Z,7.45
2023-05-06T05:48:46.866Z,7.56
2023-05-06T05:53:49.805Z,7.70
2023-05-06T05:58:52.526Z,7.86
2023-05-06T06:03:56.589Z,8.02
2023-05-06T06:08:59.657Z,8.16
2023-05-06T06:14:02.343Z,8.32
2023-05-06T06:19:05.042Z,8.48
2023-05-06T06:24:07.850Z,8.64
2023-05-06T06:29:10.582Z,8.81
2023-05-06T06:34:13.376Z,9.01
2023-05-06T06:39:16.513Z,9.24
2023-05-06T06:44:19.193Z,9.49
2023-05-06T06:49:21.933Z,9.72
2023-05-06T06:54:26.164Z,9.93
2023-05-06T06:59:28.934Z,10.13
2023-05-06T07:04:31.769Z,10.27
2023-05-06T07:09:35.754Z,10.43
2023-05-06T07:14:38.595Z,10.67
2023-05-06T07:19:41.384Z,10.90
2023-05-06T07:24:44.565Z,11.13
2023-05-06T07:29:47.358Z,11.35
2023-05-06T07:34:50.064Z,11.59
2023-05-06T07:39:52.874Z,11.83
2023-05-06T07:44:55.682Z,12.02
2023-05-06T07:49:58.898Z,12.10
2023-05-06T07:55:01.672Z,12.18
2023-05-06T08:00:04.801Z,12.29
2023-05-06T08:05:08.931Z,12.41
2023-05-06T08:10:12.002Z,12.58
2023-05-06T08:15:14.958Z,12.67
2023-05-06T08:20:17.650Z,12.73
2023-05-06T08:25:20.377Z,12.83
2023-05-06T08:30:23.111Z,12.95
2023-05-06T08:35:25.798Z,13.08
2023-05-06T08:40:33.961Z,13.18
2023-05-06T08:45:39.539Z,13.26
2023-05-06T08:50:43.432Z,13.30
2023-05-06T08:55:50.057Z,13.39
2023-05-06T09:00:52.830Z,13.50
2023-05-06T09:05:59.224Z,13.57
2023-05-06T09:11:24.672Z,13.65
2023-05-06T09:16:29.742Z,13.72
2023-05-06T09:21:42.656Z,13.78
2023-05-06T09:26:51.132Z,13.83
2023-05-06T09:31:54.222Z,13.91
2023-05-06T09:36:57.813Z,14.04
2023-05-06T09:42:00.582Z,14.19
2023-05-06T09:47:03.360Z,14.31
2023-05-06T09:52:07.549Z,14.35
2023-05-06T09:57:14.162Z,14.40
2023-05-06T10:02:19.397Z,14.50
2023-05-06T10:07:29.058Z,14.68
2023-05-06T10:12:37.983Z,14.88
2023-05-06T10:17:45.688Z,15.03
2023-05-06T10:23:14.526Z,15.12
2023-05-06T10:28:24.495Z,15.18
2023-05-06T10:33:34.744Z,15.23
2023-05-06T10:38:47.595Z,15.22
2023-05-06T10:43:56.960Z,15.25
2023-05-06T10:49:06.464Z,15.19
2023-05-06T10:54:18.333Z,15.23
2023-05-06T10:59:25.051Z,15.30
2023-05-06T11:04:30.505Z,15.30
2023-05-06T11:09:33.859Z,15.26
2023-05-06T11:14:38.642Z,15.28
2023-05-06T11:19:41.329Z,15.34
2023-05-06T11:24:44.143Z,15.45
2023-05-06T11:29:46.957Z,15.50
2023-05-06T11:34:49.720Z,15.56
2023-05-06T11:39:52.868Z,15.62
2023-05-06T11:45:00.685Z,15.62
2023-05-06T11:50:07.655Z,15.66
2023-05-06T11:55:12.034Z,15.66
2023-05-06T12:00:15.225Z,15.61
2023-05-06T12:05:23.451Z,15.49
2023-05-06T12:10:26.354Z,15.43
2023-05-06T12:15:29.996Z,15.43
2023-05-06T12:20:32.878Z,15.40
2023-05-06T12:25:35.730Z,15.30
2023-05-06T12:30:38.379Z,15.28
2023-05-06T12:35:41.746Z,15.28
2023-05-06T12:40:53.891Z,15.31
2023-05-06T12:46:07.827Z,15.31
2023-05-06T12:51:21.548Z,15.28
2023-05-06T12:56:24.379Z,15.25
2023-05-06T13:01:27.607Z,15.23
2023-05-06T13:06:31.669Z,15.23
2023-05-06T13:11:34.498Z,15.13
2023-05-06T13:16:38.429Z,15.07
2023-05-06T13:21:42.608Z,15.05
2023-05-06T13:26:45.744Z,15.01
2023-05-06T13:31:48.478Z,14.96
2023-05-06T13:36:52.170Z,14.95
2023-05-06T13:41:55.263Z,14.89
2023-05-06T13:46:58.344Z,14.87
2023-05-06T13:52:01.560Z,14.87
2023-05-06T13:57:04.286Z,14.83
2023-05-06T14:02:09.357Z,14.72
2023-05-06T14:07:12.733Z,14.66
2023-05-06T14:12:16.454Z,14.64
2023-05-06T14:17:19.277Z,14.63
2023-05-06T14:22:22.014Z,14.62
2023-05-06T14:27:24.733Z,14.62
2023-05-06T14:32:27.465Z,14.59
2023-05-06T14:37:32.601Z,14.56
2023-05-06T14:42:39.061Z,14.57
2023-05-06T14:47:42.469Z,14.57
2023-05-06T14:52:45.247Z,14.59
2023-05-06T14:57:47.954Z,14.58
2023-05-06T15:02:50.980Z,14.59
2023-05-06T15:07:54.206Z,14.60
2023-05-06T15:12:56.927Z,14.57
2023-05-06T15:17:59.645Z,14.53
2023-05-06T15:23:02.737Z,14.45
2023-05-06T15:28:06.054Z,14.31
2023-05-06T15:33:09.188Z,14.26
2023-05-06T15:38:12.107Z,14.21
2023-05-06T15:43:22.799Z,14.15
2023-05-06T15:48:26.847Z,14.10
2023-05-06T15:53:29.761Z,14.04
2023-05-06T15:58:37.363Z,13.99
2023-05-06T16:03:43.391Z,13.93
2023-05-06T16:08:46.418Z,13.93
2023-05-06T16:13:49.228Z,13.91
2023-05-06T16:18:52.108Z,13.89
2023-05-06T16:23:54.960Z,13.85
2023-05-06T16:29:01.851Z,13.82
2023-05-06T16:34:05.392Z,13.79
2023-05-06T16:39:10.259Z,13.76
2023-05-06T16:44:12.968Z,13.72
2023-05-06T16:49:17.383Z,13.68
2023-05-06T16:54:20.174Z,13.65
2023-05-06T16:59:23.022Z,13.60
2023-05-06T17:04:26.110Z,13.58
2023-05-06T17:09:30.885Z,13.53
2023-05-06T17:14:33.721Z,13.51
2023-05-06T17:19:36.434Z,13.49
2023-05-06T17:24:39.241Z,13.47
2023-05-06T17:29:45.380Z,13.42
2023-05-06T17:34:56.317Z,13.36
2023-05-06T17:40:07.730Z,13.28
2023-05-06T17:45:12.125Z,13.22
2023-05-06T17:50:14.981Z,13.14
2023-05-06T17:55:18.084Z,13.05
2023-05-06T18:00:22.179Z,12.98
2023-05-06T18:05:25.930Z,12.91
2023-05-06T18:10:29.544Z,12.84
2023-05-06T18:15:32.773Z,12.75
2023-05-06T18:20:35.644Z,12.67
2023-05-06T18:25:38.682Z,12.59
2023-05-06T18:30:42.139Z,12.50
2023-05-06T18:35:44.885Z,12.40
2023-05-06T18:40:47.949Z,12.29
2023-05-06T18:45:52.402Z,12.21
2023-05-06T18:50:55.187Z,12.13
2023-05-06T18:55:57.892Z,12.06
2023-05-06T19:01:00.677Z,11.98
2023-05-06T19:06:07.686Z,11.87
2023-05-06T19:11:19.185Z,11.80
2023-05-06T19:16:22.153Z,11.73
2023-05-06T19:21:24.967Z,11.64
2023-05-06T19:26:28.217Z,11.59
2023-05-06T19:31:31.051Z,11.54
2023-05-06T19:36:34.252Z,11.48
2023-05-06T19:41:37.015Z,11.43
2023-05-06T19:46:39.809Z,11.38
2023-05-06T19:51:42.658Z,11.32
2023-05-06T19:56:45.434Z,11.23
2023-05-06T20:01:48.143Z,11.15
2023-05-06T20:06:50.892Z,11.10
2023-05-06T20:11:54.025Z,11.05
2023-05-06T20:16:58.317Z,10.99
2023-05-06T20:22:01.042Z,10.94
2023-05-06T20:27:03.853Z,10.90
2023-05-06T20:32:06.666Z,10.84
2023-05-06T20:37:09.568Z,10.76
2023-05-06T20:42:12.331Z,10.68
2023-05-06T20:47:15.020Z,10.58
2023-05-06T20:52:18.017Z,10.50
2023-05-06T20:57:21.890Z,10.41
2023-05-06T21:02:24.821Z,10.35
2023-05-06T21:07:27.600Z,10.29
2023-05-06T21:12:30.273Z,10.20
2023-05-06T21:17:33.020Z,10.09
2023-05-06T21:22:35.891Z,9.99
2023-05-06T21:27:38.925Z,9.92
2023-05-06T21:32:41.825Z,9.85
2023-05-06T21:37:45.365Z,9.79
2023-05-06T21:42:48.078Z,9.72
2023-05-06T21:47:50.830Z,9.62
2023-05-06T21:52:53.526Z,9.55
2023-05-06T21:57:56.323Z,9.47
2023-05-06T22:02:59.116Z,9.38
2023-05-06T22:08:01.898Z,9.31
2023-05-06T22:13:04.677Z,9.26
2023-05-06T22:18:08.716Z,9.20
2023-05-06T22:23:12.429Z,9.12
2023-05-06T22:28:15.137Z,9.06
2023-05-06T22:33:17.811Z,9.00
2023-05-06T22:38:20.590Z,8.98
2023-05-06T22:43:23.556Z,8.93
2023-05-06T22:48:26.465Z,8.87
2023-05-06T22:53:29.256Z,8.81
2023-05-06T22:58:32.004Z,8.73
2023-05-06T23:03:35.644Z,8.66
2023-05-06T23:08:38.353Z,8.58
2023-05-06T23:13:41.032Z,8.51
2023-05-06T23:18:43.742Z,8.42
2023-05-06T23:23:46.430Z,8.35
2023-05-06T23:28:49.101Z,8.28
2023-05-06T23:33:51.884Z,8.21
2023-05-06T23:38:55.650Z,8.13
2023-05-06T23:43:58.365Z,8.04
2023-05-06T23:49:01.061Z,7.95
2023-05-06T23:54:03.812Z,7.85
2023-05-06T23:59:06.877Z,7.75
